Time;durP1;ratioP1;P1;durP2;ratioP2;P2;SDS_P1;SDS_P2;PMS_P1;PMS_P2;Temp;Humidity;BMP_temperature;BMP_pressure;BME280_temperature;BME280_humidity;BME280_pressure;Samples;Min_cycle;Max_cycle;Signal;HPM_P1;HPM_P2
2022/12/31 00:01:24;;;;;;;6.73;6.13;;;10.60;99.90;;;;;;5030078;28;20191;-53
2022/12/31 00:03:52;;;;;;;7.63;5.60;;;10.70;99.90;;;;;;5022998;28;20269;-55
2022/12/31 00:06:24;;;;;;;6.33;5.83;;;10.70;99.90;;;;;;5021252;28;20903;-51
2022/12/31 00:08:53;;;;;;;5.73;5.33;;;10.70;99.90;;;;;;5016932;28;20755;-55
2022/12/31 00:11:20;;;;;;;6.80;6.17;;;10.80;99.90;;;;;;5018289;28;20212;-49
2022/12/31 00:13:48;;;;;;;8.53;6.37;;;10.80;99.90;;;;;;5028141;28;20705;-55
2022/12/31 00:16:17;;;;;;;7.27;6.57;;;10.80;99.90;;;;;;5019966;28;20228;-50
2022/12/31 00:18:45;;;;;;;6.27;5.67;;;10.90;99.90;;;;;;5023130;28;20215;-51
2022/12/31 00:21:14;;;;;;;6.47;5.97;;;10.90;99.90;;;;;;5020790;28;20966;-49
2022/12/31 00:23:42;;;;;;;6.47;5.97;;;10.90;99.90;;;;;;5022213;28;20196;-51
2022/12/31 00:26:12;;;;;;;6.90;6.30;;;10.90;99.90;;;;;;5006160;28;20223;-49
2022/12/31 00:28:39;;;;;;;8.00;6.87;;;10.90;99.90;;;;;;5028982;28;20250;-51
2022/12/31 00:31:08;;;;;;;7.37;6.67;;;11.00;99.90;;;;;;5038622;28;20191;-51
2022/12/31 00:33:36;;;;;;;6.90;6.30;;;11.00;99.90;;;;;;5042107;28;20195;-48
2022/12/31 00:36:08;;;;;;;7.57;6.87;;;11.10;99.90;;;;;;5019063;28;20237;-51
2022/12/31 00:38:35;;;;;;;6.57;5.97;;;11.10;99.90;;;;;;5022734;28;20212;-53
2022/12/31 00:41:05;;;;;;;6.93;6.33;;;11.10;99.90;;;;;;5005973;28;20650;-53
2022/12/31 00:43:32;;;;;;;6.93;6.30;;;11.10;99.90;;;;;;5025724;28;20213;-49
2022/12/31 00:45:59;;;;;;;6.43;5.87;;;11.20;99.90;;;;;;5032646;28;20257;-53
2022/12/31 00:48:27;;;;;;;7.73;7.03;;;11.20;99.90;;;;;;5027067;28;20208;-46
2022/12/31 00:50:55;;;;;;;6.60;6.00;;;11.20;99.90;;;;;;5028900;28;20207;-55
2022/12/31 00:53:22;;;;;;;6.20;5.70;;;11.30;99.90;;;;;;5025973;28;20233;-44
2022/12/31 00:55:50;;;;;;;6.80;6.30;;;11.30;99.90;;;;;;5021015;28;20310;-56
2022/12/31 00:58:17;;;;;;;6.40;5.90;;;11.30;99.90;;;;;;5019012;28;20304;-45
2022/12/31 01:00:44;;;;;;;6.50;6.00;;;11.30;99.90;;;;;;5033605;28;20722;-47
2022/12/31 01:03:11;;;;;;;6.70;6.03;;;11.30;99.90;;;;;;5023578;28;20203;-44
2022/12/31 01:05:38;;;;;;;6.20;5.70;;;11.40;99.90;;;;;;5031841;28;20716;-45
2022/12/31 01:08:05;;;;;;;6.40;5.90;;;11.40;99.90;;;;;;5028030;28;20196;-49
2022/12/31 01:13:18;;;;;;;6.27;5.70;;;11.40;99.90;;;;;;5013825;28;20353;-50
2022/12/31 01:15:45;;;;;;;6.00;5.50;;;11.40;99.90;;;;;;5030871;28;20572;-51
2022/12/31 01:18:12;;;;;;;5.50;5.07;;;11.40;99.90;;;;;;5023659;28;20279;-52
2022/12/31 01:20:41;;;;;;;5.80;5.33;;;11.40;99.90;;;;;;5027234;28;20208;-46
2022/12/31 01:23:09;;;;;;;6.40;5.60;;;11.50;99.90;;;;;;5023070;28;20192;-49
2022/12/31 01:25:37;;;;;;;5.20;4.80;;;11.50;99.90;;;;;;5027255;28;20224;-47
2022/12/31 01:28:05;;;;;;;6.20;5.53;;;11.50;99.90;;;;;;5009369;28;20203;-49
2022/12/31 01:30:33;;;;;;;5.83;5.33;;;11.50;99.90;;;;;;5032476;28;20585;-47
2022/12/31 01:33:00;;;;;;;6.33;5.73;;;11.50;99.90;;;;;;5026122;28;20625;-52
2022/12/31 01:35:27;;;;;;;5.43;5.03;;;11.50;99.90;;;;;;5035919;28;20314;-45
2022/12/31 01:37:54;;;;;;;5.37;4.93;;;11.50;99.90;;;;;;5028255;28;20208;-54
2022/12/31 01:40:20;;;;;;;5.43;5.00;;;11.50;99.90;;;;;;5023992;28;20226;-49
2022/12/31 01:42:54;;;;;;;6.17;4.67;;;11.60;99.90;;;;;;5021871;28;20204;-53
2022/12/31 01:45:21;;;;;;;5.60;4.67;;;11.60;99.90;;;;;;5024597;28;20311;-47
2022/12/31 01:47:52;;;;;;;5.70;4.60;;;11.60;99.90;;;;;;5026559;28;20200;-53
2022/12/31 01:50:23;;;;;;;5.60;4.60;;;11.60;99.90;;;;;;5023976;28;20203;-52
2022/12/31 01:52:52;;;;;;;5.07;4.67;;;11.60;99.90;;;;;;5024114;28;20244;-54
2022/12/31 01:55:22;;;;;;;4.70;4.40;;;11.60;99.90;;;;;;5023311;28;20326;-51
2022/12/31 01:57:52;;;;;;;5.30;4.50;;;11.60;99.90;;;;;;5024090;28;20219;-53
2022/12/31 02:00:19;;;;;;;4.77;4.37;;;11.60;99.90;;;;;;5015845;28;20200;-51
2022/12/31 02:02:46;;;;;;;4.33;3.93;;;11.70;99.90;;;;;;5029356;28;20728;-52
2022/12/31 02:05:22;;;;;;;5.97;4.77;;;11.60;99.90;;;;;;5034354;28;20210;-48
2022/12/31 02:07:50;;;;;;;4.67;4.33;;;11.70;99.90;;;;;;5032383;28;20464;-53
2022/12/31 02:10:17;;;;;;;5.03;4.53;;;11.70;99.90;;;;;;5022207;28;20199;-50
2022/12/31 02:12:44;;;;;;;4.70;4.30;;;11.70;99.90;;;;;;5024970;28;20223;-52
2022/12/31 02:15:11;;;;;;;6.13;4.30;;;11.70;99.90;;;;;;5013447;28;20298;-53
2022/12/31 02:17:47;;;;;;;4.63;4.10;;;11.70;99.90;;;;;;5029057;28;20215;-51
2022/12/31 02:20:44;;;;;;;4.57;4.23;;;11.70;99.90;;;;;;5020367;28;22892;-52
2022/12/31 02:23:31;;;;;;;4.13;3.83;;;11.70;99.90;;;;;;5021407;28;20204;-50
2022/12/31 02:26:34;;;;;;;5.67;5.07;;;11.70;99.90;;;;;;5030940;28;20724;-51
2022/12/31 02:29:32;;;;;;;5.77;4.17;;;11.70;99.90;;;;;;5031029;28;20215;-55
2022/12/31 02:32:04;;;;;;;4.57;4.13;;;11.70;99.90;;;;;;4995887;28;20294;-53
2022/12/31 02:34:36;;;;;;;5.40;4.90;;;11.70;99.90;;;;;;5032535;28;20206;-50
2022/12/31 02:37:06;;;;;;;5.30;4.80;;;11.80;99.90;;;;;;5026314;28;20214;-54
2022/12/31 02:39:35;;;;;;;6.97;5.00;;;11.80;99.90;;;;;;4975792;28;1445949;-50
2022/12/31 02:42:03;;;;;;;5.33;4.83;;;11.80;99.90;;;;;;5022181;28;20196;-57
2022/12/31 02:44:31;;;;;;;5.07;4.67;;;11.70;99.90;;;;;;5025733;28;20267;-52
2022/12/31 02:47:09;;;;;;;5.63;5.13;;;11.70;99.90;;;;;;5017069;28;20200;-52
2022/12/31 02:49:46;;;;;;;4.90;4.50;;;11.70;99.90;;;;;;5028931;28;20559;-48
2022/12/31 02:52:21;;;;;;;4.90;4.60;;;11.70;99.90;;;;;;5020271;28;20223;-46
2022/12/31 02:54:55;;;;;;;4.80;4.40;;;11.70;99.90;;;;;;5023464;28;20223;-51
2022/12/31 02:57:30;;;;;;;5.20;4.73;;;11.60;99.90;;;;;;5023640;28;20330;-46
2022/12/31 03:02:48;;;;;;;5.33;4.93;;;11.60;99.90;;;;;;5016214;28;20207;-53
2022/12/31 03:05:19;;;;;;;5.27;4.87;;;11.60;99.90;;;;;;5031825;28;20923;-50
2022/12/31 03:07:47;;;;;;;5.20;4.67;;;11.60;99.90;;;;;;5028128;28;20250;-55
2022/12/31 03:10:13;;;;;;;4.83;4.53;;;11.60;99.90;;;;;;5021601;28;20830;-53
2022/12/31 03:12:45;;;;;;;5.30;4.80;;;11.60;99.90;;;;;;5025240;28;20204;-52
2022/12/31 03:15:21;;;;;;;5.63;4.37;;;11.50;99.90;;;;;;5021688;28;20212;-51
2022/12/31 03:17:55;;;;;;;5.40;4.87;;;11.50;99.90;;;;;;5019182;28;20273;-51
2022/12/31 03:23:14;;;;;;;5.37;4.30;;;11.50;99.90;;;;;;5031266;28;20194;-49
2022/12/31 03:25:41;;;;;;;4.17;3.77;;;11.50;99.90;;;;;;5027696;28;20230;-52
2022/12/31 03:28:10;;;;;;;4.60;4.20;;;11.50;99.90;;;;;;5021072;28;20897;-51
2022/12/31 03:30:39;;;;;;;4.10;3.80;;;11.50;99.90;;;;;;5024966;28;20585;-50
2022/12/31 03:33:09;;;;;;;4.60;4.20;;;11.50;99.90;;;;;;5012267;28;20290;-52
2022/12/31 03:35:38;;;;;;;4.27;3.97;;;11.50;99.90;;;;;;5024567;28;20261;-50
2022/12/31 03:38:05;;;;;;;4.43;4.03;;;11.50;99.90;;;;;;5020535;28;20204;-51
2022/12/31 03:40:36;;;;;;;5.93;4.07;;;11.40;99.90;;;;;;5024748;28;20231;-49
2022/12/31 03:43:03;;;;;;;4.13;3.80;;;11.50;99.90;;;;;;5020667;28;20667;-53
2022/12/31 03:45:30;;;;;;;3.90;3.60;;;11.40;99.90;;;;;;5024295;28;20258;-49
2022/12/31 03:47:57;;;;;;;3.50;3.30;;;11.40;99.90;;;;;;5009963;28;20218;-53
2022/12/31 03:50:26;;;;;;;4.10;3.20;;;11.40;99.90;;;;;;5034067;28;20996;-47
2022/12/31 03:52:53;;;;;;;4.50;3.90;;;11.40;99.90;;;;;;5024591;28;20216;-52
2022/12/31 03:55:20;;;;;;;3.63;3.33;;;11.40;99.90;;;;;;5027699;28;20853;-49
2022/12/31 03:57:47;;;;;;;3.43;3.23;;;11.40;99.90;;;;;;5023878;28;20695;-55
2022/12/31 04:00:17;;;;;;;3.93;3.30;;;11.40;99.90;;;;;;5021200;28;20277;-46
2022/12/31 04:02:45;;;;;;;3.60;2.83;;;11.40;99.90;;;;;;5015484;28;20214;-53
2022/12/31 04:05:13;;;;;;;3.17;2.87;;;11.30;99.90;;;;;;5029543;28;20207;-46
2022/12/31 04:07:42;;;;;;;3.67;2.50;;;11.40;99.90;;;;;;5023829;28;20204;-46
2022/12/31 04:10:10;;;;;;;3.30;2.60;;;11.30;99.90;;;;;;5020492;28;20198;-48
2022/12/31 04:12:38;;;;;;;3.10;2.83;;;11.30;99.90;;;;;;5023669;28;20203;-47
2022/12/31 04:15:07;;;;;;;3.43;2.43;;;11.30;99.90;;;;;;5020253;28;20215;-53
2022/12/31 04:17:34;;;;;;;2.93;2.73;;;11.30;99.90;;;;;;5024076;28;20302;-48
2022/12/31 04:20:02;;;;;;;3.00;2.80;;;11.30;99.90;;;;;;5011544;28;20229;-55
2022/12/31 04:22:29;;;;;;;3.57;2.77;;;11.30;99.90;;;;;;5033508;28;20571;-51
2022/12/31 04:24:57;;;;;;;2.80;2.60;;;11.30;99.90;;;;;;5024402;28;20215;-55
2022/12/31 04:27:24;;;;;;;3.03;2.83;;;11.30;99.90;;;;;;5023154;28;20196;-51
2022/12/31 04:29:51;;;;;;;3.87;2.90;;;11.30;99.90;;;;;;5022883;28;20571;-56
2022/12/31 04:32:18;;;;;;;3.23;2.80;;;11.30;99.90;;;;;;5032038;28;20199;-48
2022/12/31 04:34:45;;;;;;;3.87;3.10;;;11.30;99.90;;;;;;5025830;28;20251;-52
2022/12/31 04:37:12;;;;;;;3.60;3.30;;;11.20;99.90;;;;;;5027195;28;20216;-50
2022/12/31 04:39:39;;;;;;;3.50;3.10;;;11.30;99.90;;;;;;5030523;28;20563;-52
2022/12/31 04:42:07;;;;;;;3.70;3.40;;;11.30;99.90;;;;;;5022184;28;20768;-51
2022/12/31 04:44:34;;;;;;;3.20;3.00;;;11.30;99.90;;;;;;5022394;28;20200;-53
2022/12/31 04:47:01;;;;;;;3.33;3.07;;;11.30;99.90;;;;;;5020427;28;20291;-51
2022/12/31 04:49:28;;;;;;;3.70;3.50;;;11.30;99.90;;;;;;5023668;28;20200;-48
2022/12/31 04:51:55;;;;;;;4.10;3.80;;;11.30;99.90;;;;;;5014126;28;20283;-53
2022/12/31 04:54:21;;;;;;;3.60;3.40;;;11.30;99.90;;;;;;5029823;28;20296;-52
2022/12/31 04:56:48;;;;;;;4.17;3.50;;;11.30;99.90;;;;;;5025283;28;20223;-51
2022/12/31 04:59:16;;;;;;;5.20;3.13;;;11.30;99.90;;;;;;5021007;28;20950;-48
2022/12/31 05:01:43;;;;;;;3.87;3.13;;;11.40;99.90;;;;;;5023343;28;20603;-52
2022/12/31 05:04:10;;;;;;;4.23;3.80;;;11.30;99.90;;;;;;5019676;28;20196;-50
2022/12/31 05:06:37;;;;;;;5.20;3.60;;;11.30;99.90;;;;;;5010915;28;20679;-51
2022/12/31 05:09:04;;;;;;;3.53;3.00;;;11.30;99.90;;;;;;5021574;28;20773;-52
2022/12/31 05:11:31;;;;;;;7.17;3.40;;;11.30;99.90;;;;;;5029476;28;20286;-53
2022/12/31 05:13:58;;;;;;;2.50;2.30;;;11.30;99.90;;;;;;5020549;28;20200;-55
2022/12/31 05:16:26;;;;;;;2.57;2.37;;;11.30;99.90;;;;;;5022648;28;20295;-53
2022/12/31 05:18:54;;;;;;;3.03;2.70;;;11.30;99.90;;;;;;5021607;28;20196;-54
2022/12/31 05:21:21;;;;;;;2.40;2.20;;;11.30;99.90;;;;;;5009845;28;20338;-47
2022/12/31 05:23:48;;;;;;;3.77;2.70;;;11.30;99.90;;;;;;5027214;28;20212;-51
2022/12/31 05:26:16;;;;;;;2.67;2.47;;;11.30;99.90;;;;;;5025461;28;21085;-52
2022/12/31 05:28:42;;;;;;;2.37;2.27;;;11.30;99.90;;;;;;5023405;28;20209;-47
2022/12/31 05:31:10;;;;;;;2.40;2.20;;;11.30;99.90;;;;;;5019510;28;20192;-48
2022/12/31 05:33:38;;;;;;;2.67;1.83;;;11.20;99.90;;;;;;5026436;28;20292;-52
2022/12/31 05:36:05;;;;;;;2.30;2.10;;;11.30;99.90;;;;;;5023007;28;20306;-53
2022/12/31 05:38:32;;;;;;;2.17;2.07;;;11.20;99.90;;;;;;5018716;28;20214;-54
2022/12/31 05:41:00;;;;;;;2.33;2.13;;;11.20;99.90;;;;;;5027247;28;20636;-53
2022/12/31 05:43:27;;;;;;;1.70;1.60;;;11.20;99.90;;;;;;5036681;28;20254;-47
2022/12/31 05:45:54;;;;;;;1.87;1.70;;;11.20;99.90;;;;;;5027343;28;20302;-54
2022/12/31 05:48:21;;;;;;;1.73;1.63;;;11.20;99.90;;;;;;5024833;28;20196;-47
2022/12/31 05:50:49;;;;;;;2.23;1.67;;;11.20;99.90;;;;;;5026840;28;20207;-55
2022/12/31 05:53:16;;;;;;;3.17;1.60;;;11.20;99.90;;;;;;5021593;28;20211;-46
2022/12/31 05:55:45;;;;;;;1.70;1.30;;;11.20;99.90;;;;;;5036708;28;20650;-52
2022/12/31 05:58:13;;;;;;;1.07;1.07;;;11.20;99.90;;;;;;5019974;28;20901;-49
2022/12/31 06:00:40;;;;;;;1.17;1.17;;;11.20;99.90;;;;;;5026590;28;20208;-49
2022/12/31 06:03:07;;;;;;;1.40;1.20;;;11.20;99.90;;;;;;5024982;28;20234;-50
2022/12/31 06:05:34;;;;;;;2.83;1.53;;;11.20;99.90;;;;;;5039740;28;20234;-51
2022/12/31 06:08:02;;;;;;;1.67;1.50;;;11.20;99.90;;;;;;5025846;28;20200;-55
2022/12/31 06:10:29;;;;;;;2.20;1.13;;;11.10;99.90;;;;;;5021469;28;20286;-48
2022/12/31 06:12:56;;;;;;;1.20;1.10;;;11.10;99.90;;;;;;5025716;28;20306;-52
2022/12/31 06:15:23;;;;;;;1.33;1.23;;;11.10;99.90;;;;;;5024989;28;20295;-48
2022/12/31 06:17:50;;;;;;;1.30;1.20;;;11.10;99.90;;;;;;5023765;28;20236;-54
2022/12/31 06:20:17;;;;;;;1.43;1.33;;;11.10;99.90;;;;;;5023832;28;20250;-45
2022/12/31 06:22:44;;;;;;;1.17;1.10;;;11.10;99.90;;;;;;5023409;28;20204;-54
2022/12/31 06:25:13;;;;;;;2.77;1.13;;;11.10;99.90;;;;;;5002576;28;20216;-45
2022/12/31 06:27:39;;;;;;;1.63;1.20;;;11.10;99.90;;;;;;5026793;28;20256;-45
2022/12/31 06:30:08;;;;;;;0.83;0.83;;;11.10;99.90;;;;;;5023191;28;20305;-47
2022/12/31 06:32:35;;;;;;;2.03;1.00;;;11.10;99.90;;;;;;5034599;28;20204;-45
2022/12/31 06:35:02;;;;;;;0.70;0.70;;;11.10;99.90;;;;;;5019742;28;20969;-47
2022/12/31 06:37:29;;;;;;;1.87;0.90;;;11.10;99.90;;;;;;5024248;28;20262;-52
2022/12/31 06:39:56;;;;;;;0.80;0.77;;;11.10;99.90;;;;;;5021463;28;20208;-52
2022/12/31 06:42:27;;;;;;;1.53;1.20;;;11.10;99.90;;;;;;5009423;28;20272;-46
2022/12/31 06:44:54;;;;;;;0.87;0.70;;;11.10;99.90;;;;;;5021566;28;20572;-53
2022/12/31 06:47:21;;;;;;;1.70;0.83;;;11.00;99.90;;;;;;5024379;28;20215;-50
2022/12/31 06:49:47;;;;;;;0.60;0.60;;;11.00;99.90;;;;;;5031385;28;20214;-51
2022/12/31 06:52:14;;;;;;;0.67;0.67;;;11.00;99.90;;;;;;5030849;28;20191;-44
2022/12/31 06:54:42;;;;;;;0.77;0.60;;;11.00;99.90;;;;;;5023156;28;20232;-51
2022/12/31 06:57:09;;;;;;;0.50;0.50;;;11.00;99.90;;;;;;5011516;28;21805;-49
2022/12/31 06:59:37;;;;;;;1.50;0.57;;;10.90;99.90;;;;;;5029369;28;20204;-49
2022/12/31 07:02:17;;;;;;;0.37;0.37;;;11.00;99.90;;;;;;5027765;28;20226;-45
2022/12/31 07:05:11;;;;;;;0.50;0.50;;;10.90;99.90;;;;;;5026747;28;20215;-52
2022/12/31 07:07:49;;;;;;;0.50;0.40;;;10.90;99.90;;;;;;5029508;28;20275;-47
2022/12/31 07:10:22;;;;;;;0.57;0.50;;;10.90;99.90;;;;;;5029313;28;20192;-48
2022/12/31 07:13:07;;;;;;;0.53;0.30;;;10.90;99.90;;;;;;5009628;28;20558;-50
2022/12/31 07:15:50;;;;;;;0.40;0.40;;;10.80;99.90;;;;;;5025661;28;20730;-52
2022/12/31 07:18:30;;;;;;;1.80;0.50;;;10.80;99.90;;;;;;5027414;28;20225;-46
2022/12/31 07:20:59;;;;;;;2.00;0.50;;;10.80;99.90;;;;;;5029561;28;20549;-52
2022/12/31 07:23:27;;;;;;;0.50;0.40;;;10.80;99.90;;;;;;5024185;28;20942;-45
2022/12/31 07:26:00;;;;;;;0.40;0.40;;;10.80;99.90;;;;;;5022481;28;20220;-54
2022/12/31 07:28:44;;;;;;;0.40;0.40;;;10.80;99.90;;;;;;5008650;28;20207;-52
2022/12/31 07:31:24;;;;;;;1.20;0.30;;;10.80;99.90;;;;;;5024367;28;20202;-47
2022/12/31 07:33:58;;;;;;;0.40;0.40;;;10.80;99.90;;;;;;5020759;28;20208;-51
2022/12/31 07:36:42;;;;;;;1.90;0.50;;;10.80;99.90;;;;;;5022314;28;20228;-48
2022/12/31 07:39:14;;;;;;;0.87;0.50;;;10.80;99.90;;;;;;5024367;28;20208;-50
2022/12/31 07:41:52;;;;;;;0.97;0.40;;;10.70;99.90;;;;;;5016313;28;20258;-50
2022/12/31 07:44:37;;;;;;;0.73;0.40;;;10.80;99.90;;;;;;5010556;28;20506;-52
2022/12/31 07:47:18;;;;;;;0.77;0.40;;;10.80;99.90;;;;;;5025088;28;20211;-54
2022/12/31 07:49:46;;;;;;;0.50;0.40;;;10.70;99.90;;;;;;5032930;28;20966;-48
2022/12/31 07:52:14;;;;;;;0.73;0.50;;;10.70;99.90;;;;;;5028261;28;20321;-50
2022/12/31 07:54:41;;;;;;;0.33;0.30;;;10.80;99.90;;;;;;5028871;28;20205;-50
2022/12/31 07:57:09;;;;;;;1.00;0.30;;;10.80;99.90;;;;;;5032294;28;20219;-50
2022/12/31 07:59:46;;;;;;;2.23;0.40;;;10.70;99.90;;;;;;5012362;28;20935;-48
2022/12/31 08:02:24;;;;;;;1.80;0.40;;;10.70;99.90;;;;;;5026696;28;20573;-53
2022/12/31 08:05:00;;;;;;;1.30;0.20;;;10.70;99.90;;;;;;5025773;28;20223;-50
2022/12/31 08:07:36;;;;;;;1.13;0.20;;;10.70;99.90;;;;;;5020746;28;20191;-51
2022/12/31 08:10:09;;;;;;;1.67;0.23;;;10.70;99.90;;;;;;5028590;28;20654;-51
2022/12/31 08:12:39;;;;;;;1.43;0.30;;;10.70;99.90;;;;;;5029143;28;20202;-51
2022/12/31 08:15:13;;;;;;;0.40;0.30;;;10.70;99.90;;;;;;5012373;28;20231;-53
2022/12/31 08:17:43;;;;;;;0.40;0.30;;;10.70;99.90;;;;;;5040422;28;20837;-50
2022/12/31 08:20:13;;;;;;;0.20;0.20;;;10.70;99.90;;;;;;5029808;28;20253;-54
2022/12/31 08:23:07;;;;;;;0.73;0.40;;;10.70;99.90;;;;;;5024170;28;20220;-51
2022/12/31 08:25:45;;;;;;;0.40;0.40;;;10.70;99.90;;;;;;5023833;28;20208;-46
2022/12/31 08:28:23;;;;;;;1.00;0.40;;;10.70;99.90;;;;;;5019700;28;20690;-51
2022/12/31 08:31:00;;;;;;;0.33;0.33;;;10.70;99.90;;;;;;5015508;28;20195;-50
2022/12/31 08:33:35;;;;;;;0.70;0.40;;;10.80;99.90;;;;;;5025632;28;20202;-53
2022/12/31 08:36:15;;;;;;;0.30;0.30;;;10.70;99.90;;;;;;5034939;28;20253;-52
2022/12/31 08:38:50;;;;;;;0.70;0.40;;;10.80;99.90;;;;;;5031605;28;20227;-46
2022/12/31 08:41:26;;;;;;;0.80;0.50;;;10.80;99.90;;;;;;5028517;28;20205;-51
2022/12/31 08:44:05;;;;;;;0.57;0.50;;;10.80;99.90;;;;;;5033919;28;20570;-51
2022/12/31 08:46:40;;;;;;;0.60;0.40;;;10.90;99.90;;;;;;5007452;28;20232;-53
2022/12/31 08:49:10;;;;;;;0.60;0.50;;;10.90;99.90;;;;;;5026140;28;20198;-52
2022/12/31 08:51:37;;;;;;;0.50;0.50;;;10.90;99.90;;;;;;5014756;28;20214;-50
2022/12/31 08:54:05;;;;;;;0.43;0.43;;;10.90;99.90;;;;;;5029466;28;20200;-54
2022/12/31 08:56:36;;;;;;;0.50;0.50;;;11.00;99.90;;;;;;5031982;28;20216;-51
2022/12/31 08:59:24;;;;;;;0.80;0.50;;;11.00;99.90;;;;;;5021572;28;20863;-52
2022/12/31 09:02:14;;;;;;;1.50;0.70;;;11.00;99.90;;;;;;5026049;28;20286;-54
2022/12/31 09:04:50;;;;;;;0.80;0.50;;;11.10;99.90;;;;;;5031011;28;20211;-53
2022/12/31 09:07:27;;;;;;;1.67;0.60;;;11.10;99.90;;;;;;5031933;28;20289;-50
2022/12/31 09:10:01;;;;;;;1.37;0.60;;;11.20;99.90;;;;;;5030584;28;20204;-53
2022/12/31 09:12:35;;;;;;;0.63;0.63;;;11.20;99.90;;;;;;5035256;28;20199;-51
2022/12/31 09:15:10;;;;;;;1.57;0.70;;;11.20;99.90;;;;;;5023272;28;20903;-51
2022/12/31 09:17:45;;;;;;;1.20;0.60;;;11.20;99.90;;;;;;5036793;28;20719;-50
2022/12/31 09:20:22;;;;;;;0.43;0.43;;;11.20;99.90;;;;;;5023440;28;20312;-52
2022/12/31 09:22:50;;;;;;;2.40;0.60;;;11.20;99.90;;;;;;5038031;28;20579;-51
2022/12/31 09:25:20;;;;;;;0.70;0.70;;;11.30;99.90;;;;;;5031521;28;20216;-45
2022/12/31 09:27:57;;;;;;;0.93;0.50;;;11.30;99.90;;;;;;5040716;28;20199;-55
2022/12/31 09:30:28;;;;;;;0.50;0.50;;;11.30;99.90;;;;;;5029651;28;20842;-49
2022/12/31 09:33:01;;;;;;;0.40;0.40;;;11.20;99.90;;;;;;5036370;28;20313;-51
2022/12/31 09:35:36;;;;;;;0.73;0.70;;;11.20;99.90;;;;;;5013993;28;20296;-49
2022/12/31 09:38:10;;;;;;;1.13;0.60;;;11.20;99.90;;;;;;5035762;28;20239;-49
2022/12/31 09:40:55;;;;;;;0.37;0.30;;;11.20;99.90;;;;;;5033068;28;20253;-47
2022/12/31 09:43:47;;;;;;;1.13;0.60;;;11.20;99.90;;;;;;5029803;28;20196;-48
2022/12/31 09:46:43;;;;;;;1.13;0.60;;;11.20;99.90;;;;;;5022274;28;20230;-50
2022/12/31 09:49:41;;;;;;;0.70;0.70;;;11.20;99.90;;;;;;5025467;28;20301;-50
2022/12/31 09:52:18;;;;;;;0.70;0.70;;;11.20;99.90;;;;;;5013665;28;20196;-48
2022/12/31 09:54:52;;;;;;;1.10;0.80;;;11.20;99.90;;;;;;5037441;28;20228;-50
2022/12/31 09:57:30;;;;;;;1.23;0.87;;;11.20;99.90;;;;;;5034694;28;20198;-50
2022/12/31 10:00:03;;;;;;;3.10;1.30;;;11.20;99.90;;;;;;5031270;28;20191;-54
2022/12/31 10:02:57;;;;;;;1.47;1.37;;;11.20;99.90;;;;;;5032497;28;20292;-53
2022/12/31 10:05:40;;;;;;;1.80;1.70;;;11.20;99.90;;;;;;5015859;28;20223;-51
2022/12/31 10:08:16;;;;;;;3.10;1.47;;;11.20;99.90;;;;;;5030675;28;20266;-46
2022/12/31 10:10:50;;;;;;;1.83;1.73;;;11.20;99.90;;;;;;5033348;28;20219;-51
2022/12/31 10:13:34;;;;;;;2.17;1.90;;;11.20;99.90;;;;;;5029282;28;20289;-47
2022/12/31 10:16:20;;;;;;;2.00;1.90;;;11.20;99.90;;;;;;5025457;28;20224;-53
2022/12/31 10:19:08;;;;;;;2.17;2.03;;;11.20;99.90;;;;;;5024866;28;20215;-49
2022/12/31 10:21:48;;;;;;;2.47;2.20;;;11.20;99.90;;;;;;4995283;28;20249;-49
2022/12/31 10:24:45;;;;;;;5.17;1.80;;;11.20;99.90;;;;;;5036692;28;20791;-53
2022/12/31 10:27:28;;;;;;;1.97;1.50;;;11.30;99.90;;;;;;5024519;28;20204;-53
2022/12/31 10:30:02;;;;;;;1.07;1.03;;;11.20;99.90;;;;;;5030747;28;20708;-54
2022/12/31 10:32:40;;;;;;;1.37;1.27;;;11.30;99.90;;;;;;5034784;28;20207;-50
2022/12/31 10:35:18;;;;;;;1.97;1.40;;;11.30;99.90;;;;;;5027675;28;20237;-45
2022/12/31 10:37:55;;;;;;;2.67;1.17;;;11.40;99.90;;;;;;5017677;28;20226;-54
2022/12/31 10:40:35;;;;;;;1.37;1.20;;;11.30;99.90;;;;;;5035008;28;20697;-48
2022/12/31 10:43:29;;;;;;;1.30;1.13;;;11.40;99.90;;;;;;5026327;28;20215;-51
2022/12/31 10:46:27;;;;;;;0.90;0.90;;;11.40;99.90;;;;;;5028779;28;20234;-55
2022/12/31 10:49:14;;;;;;;0.90;0.90;;;11.40;99.90;;;;;;5030262;28;20285;-52
2022/12/31 10:52:25;;;;;;;0.90;0.77;;;11.50;99.90;;;;;;5022522;28;20662;-54
2022/12/31 10:55:25;;;;;;;1.80;0.80;;;11.50;99.90;;;;;;5025391;28;20228;-54
2022/12/31 10:58:15;;;;;;;0.70;0.63;;;11.60;99.90;;;;;;5030515;28;20756;-54
2022/12/31 11:00:52;;;;;;;0.73;0.63;;;11.60;99.90;;;;;;5037033;28;20739;-52
2022/12/31 11:04:10;;;;;;;0.80;0.60;;;11.60;99.90;;;;;;5024523;28;20201;-50
2022/12/31 11:07:01;;;;;;;12.97;11.80;;;11.70;99.90;;;;;;5025132;28;20594;-52
2022/12/31 11:09:54;;;;;;;4.80;4.37;;;11.70;99.90;;;;;;5028247;28;20207;-53
2022/12/31 11:12:38;;;;;;;0.67;0.60;;;11.70;99.90;;;;;;5032093;28;20214;-50
2022/12/31 11:15:35;;;;;;;0.60;0.60;;;11.70;99.90;;;;;;5025918;28;20817;-53
2022/12/31 11:18:12;;;;;;;0.60;0.60;;;11.70;99.90;;;;;;5029850;28;20187;-51
2022/12/31 11:21:05;;;;;;;0.80;0.80;;;11.80;99.90;;;;;;5028364;28;20204;-52
2022/12/31 11:23:44;;;;;;;0.80;0.80;;;11.80;99.90;;;;;;5016850;28;20796;-45
2022/12/31 11:26:22;;;;;;;1.90;1.17;;;11.80;99.90;;;;;;5034694;28;20548;-48
2022/12/31 11:29:11;;;;;;;1.23;1.00;;;11.90;99.90;;;;;;5024904;28;20199;-51
2022/12/31 11:31:57;;;;;;;0.70;0.70;;;11.90;99.90;;;;;;5038611;28;20218;-54
2022/12/31 11:34:43;;;;;;;0.90;0.90;;;12.00;99.90;;;;;;5025933;28;20248;-49
2022/12/31 11:37:29;;;;;;;1.20;1.20;;;12.00;99.90;;;;;;5031133;28;20330;-47
2022/12/31 11:40:14;;;;;;;1.23;1.17;;;12.00;99.90;;;;;;5013783;28;20589;-54
2022/12/31 11:42:49;;;;;;;1.50;1.40;;;12.10;99.90;;;;;;5033974;28;20249;-56
2022/12/31 11:45:32;;;;;;;1.00;1.00;;;12.20;99.90;;;;;;5029577;28;20305;-49
2022/12/31 11:48:11;;;;;;;0.90;0.90;;;12.20;99.90;;;;;;5028561;28;20200;-48
2022/12/31 11:50:48;;;;;;;0.80;0.80;;;12.30;99.90;;;;;;5028579;28;20225;-53
2022/12/31 11:53:34;;;;;;;1.03;0.93;;;12.30;99.90;;;;;;5031816;28;20210;-48
2022/12/31 11:56:13;;;;;;;1.43;1.10;;;12.40;99.90;;;;;;5015816;28;20784;-48
2022/12/31 11:58:45;;;;;;;1.00;1.00;;;12.40;99.90;;;;;;5025377;28;20239;-46
2022/12/31 12:01:17;;;;;;;0.90;0.90;;;12.60;99.90;;;;;;5032392;28;20203;-54
2022/12/31 12:03:47;;;;;;;1.17;1.07;;;12.50;99.90;;;;;;5023326;28;20196;-45
2022/12/31 12:06:16;;;;;;;1.30;1.20;;;12.60;99.90;;;;;;5027646;28;20219;-53
2022/12/31 12:08:44;;;;;;;1.30;1.20;;;12.70;99.90;;;;;;5026230;28;22833;-49
2022/12/31 12:11:18;;;;;;;0.77;0.70;;;12.70;99.90;;;;;;5022407;28;20234;-56
2022/12/31 12:13:46;;;;;;;1.63;1.03;;;12.80;99.90;;;;;;5022693;28;20304;-50
2022/12/31 12:16:13;;;;;;;1.57;0.80;;;12.90;99.90;;;;;;5035707;28;20261;-55
2022/12/31 12:18:43;;;;;;;1.17;1.00;;;12.90;99.90;;;;;;5034173;28;20203;-52
2022/12/31 12:21:14;;;;;;;0.70;0.70;;;13.00;99.90;;;;;;5040703;28;20567;-54
2022/12/31 12:23:41;;;;;;;0.67;0.67;;;13.00;99.90;;;;;;5028642;28;20234;-52
2022/12/31 12:26:26;;;;;;;1.00;0.90;;;13.00;99.90;;;;;;5015860;28;20219;-54
2022/12/31 12:28:53;;;;;;;0.67;0.60;;;13.10;99.90;;;;;;5030512;28;20214;-53
2022/12/31 12:31:22;;;;;;;0.57;0.57;;;13.10;99.90;;;;;;5019110;28;20199;-55
2022/12/31 12:33:51;;;;;;;2.53;0.70;;;13.20;99.90;;;;;;5034533;28;20206;-47
2022/12/31 12:36:20;;;;;;;2.70;2.33;;;13.20;99.90;;;;;;5034531;28;20899;-53
2022/12/31 12:39:21;;;;;;;1.53;0.70;;;13.30;99.90;;;;;;5025893;28;20600;-54
2022/12/31 12:42:00;;;;;;;0.80;0.80;;;13.30;99.90;;;;;;5014227;28;20225;-51
2022/12/31 12:44:27;;;;;;;0.87;0.87;;;13.30;99.90;;;;;;5031695;28;20191;-52
2022/12/31 12:46:55;;;;;;;0.90;0.90;;;13.40;99.90;;;;;;5028063;28;20210;-46
2022/12/31 12:49:24;;;;;;;0.93;0.70;;;13.30;99.90;;;;;;5031122;28;20207;-55
2022/12/31 12:52:15;;;;;;;0.70;0.70;;;13.40;99.90;;;;;;5027478;28;20289;-49
2022/12/31 12:54:58;;;;;;;0.80;0.80;;;13.40;99.90;;;;;;5025544;28;20894;-49
2022/12/31 12:57:34;;;;;;;0.80;0.70;;;13.40;99.90;;;;;;5012710;28;20603;-55
2022/12/31 13:00:17;;;;;;;0.50;0.50;;;13.40;99.90;;;;;;5038236;28;20215;-47
2022/12/31 13:02:59;;;;;;;1.43;0.67;;;13.50;99.90;;;;;;5025805;28;20192;-50
2022/12/31 13:05:39;;;;;;;1.10;0.60;;;13.50;99.90;;;;;;5040651;28;20309;-55
2022/12/31 13:08:21;;;;;;;0.50;0.50;;;13.60;99.90;;;;;;5040374;28;20278;-53
2022/12/31 13:11:00;;;;;;;1.00;0.60;;;13.60;99.90;;;;;;5026961;28;20253;-48
2022/12/31 13:13:38;;;;;;;0.70;0.60;;;13.70;99.90;;;;;;5015432;28;20196;-53
2022/12/31 13:16:15;;;;;;;0.53;0.40;;;13.70;99.90;;;;;;5033911;28;20314;-53
2022/12/31 13:18:53;;;;;;;1.90;0.60;;;13.70;99.90;;;;;;5033883;28;20446;-52
2022/12/31 13:21:34;;;;;;;0.80;0.80;;;13.70;99.90;;;;;;5024460;28;20278;-55
2022/12/31 13:24:13;;;;;;;0.53;0.53;;;13.70;99.90;;;;;;5025847;28;20581;-51
2022/12/31 13:26:45;;;;;;;1.10;0.80;;;13.70;99.90;;;;;;5024624;28;20218;-50